Time;durP1;ratioP1;P1;durP2;ratioP2;P2;SDS_P1;SDS_P2;PMS_P1;PMS_P2;Temp;Humidity;BMP_temperature;BMP_pressure;BME280_temperature;BME280_humidity;BME280_pressure;Samples;Min_cycle;Max_cycle;Signal;HPM_P1;HPM_P2
2024/03/21 00:02:16;;;;;;;95.70;46.35;;;;;;;10.31;100.00;101283.19;5000554;28;20287;-77
2024/03/21 00:04:42;;;;;;;85.05;43.55;;;;;;;10.31;100.00;101269.84;5008705;28;20053;-76
2024/03/21 00:07:07;;;;;;;92.93;44.03;;;;;;;10.30;100.00;101265.47;5032706;28;20034;-76
2024/03/21 00:09:33;;;;;;;79.87;40.43;;;;;;;10.34;100.00;101267.69;5015967;28;20370;-76
2024/03/21 00:11:59;;;;;;;84.85;43.30;;;;;;;10.38;100.00;101257.59;5018946;28;20038;-78
2024/03/21 00:14:25;;;;;;;74.68;39.30;;;;;;;10.34;100.00;101257.03;5000797;28;20443;-78
2024/03/21 00:16:51;;;;;;;;;;;;;;;10.48;100.00;101258.38;5023152;28;20102;-77
2024/03/21 00:19:18;;;;;;;81.90;41.17;;;;;;;10.45;100.00;101252.50;5028475;28;20404;-77
2024/03/21 00:21:45;;;;;;;77.28;39.42;;;;;;;10.43;100.00;101252.63;5027924;28;20483;-77
2024/03/21 00:24:11;;;;;;;83.20;40.00;;;;;;;10.49;100.00;101249.38;5026046;28;20049;-78
2024/03/21 00:26:36;;;;;;;86.72;43.40;;;;;;;10.46;100.00;101238.97;5022567;28;20033;-76
2024/03/21 00:29:04;;;;;;;80.47;39.47;;;;;;;10.40;100.00;101225.41;5011895;28;20490;-77
2024/03/21 00:31:31;;;;;;;84.30;42.20;;;;;;;10.42;100.00;101226.94;5009513;28;20122;-78
2024/03/21 00:33:57;;;;;;;74.97;38.65;;;;;;;10.38;100.00;101219.38;5023519;28;20038;-77
2024/03/21 00:36:22;;;;;;;81.97;40.88;;;;;;;10.43;100.00;101222.44;5021191;28;20037;-77
2024/03/21 00:38:47;;;;;;;85.17;41.07;;;;;;;10.42;100.00;101226.09;5002824;28;20045;-77
2024/03/21 00:41:13;;;;;;;75.17;38.77;;;;;;;10.43;100.00;101225.09;5022322;28;20091;-77
2024/03/21 00:43:38;;;;;;;79.07;38.23;;;;;;;10.52;100.00;101227.72;5029677;28;20037;-78
2024/03/21 00:46:03;;;;;;;68.37;33.00;;;;;;;10.41;100.00;101214.56;5009414;28;20510;-77
2024/03/21 00:48:29;;;;;;;71.50;37.10;;;;;;;10.45;100.00;101207.94;5031330;28;20037;-77
2024/03/21 00:50:54;;;;;;;75.30;37.57;;;;;;;10.54;100.00;101209.72;5016140;28;20029;-77
2024/03/21 00:53:20;;;;;;;86.23;38.53;;;;;;;10.53;100.00;101197.34;5023718;28;20036;-78
2024/03/21 00:55:45;;;;;;;72.23;35.40;;;;;;;10.52;100.00;101201.00;5027087;28;20034;-78
2024/03/21 00:58:10;;;;;;;73.10;35.20;;;;;;;10.60;100.00;101196.75;5038190;28;20029;-78
2024/03/21 01:00:36;;;;;;;61.67;32.10;;;;;;;10.65;100.00;101189.13;5010991;28;20030;-78
2024/03/21 01:03:05;;;;;;;73.20;34.63;;;;;;;10.62;100.00;101192.09;5045743;28;20582;-78
2024/03/21 01:05:32;;;;;;;55.53;30.17;;;;;;;10.68;100.00;101183.50;5017035;28;20115;-77
2024/03/21 01:07:57;;;;;;;52.42;27.83;;;;;;;10.64;100.00;101171.44;5031452;28;20981;-77
2024/03/21 01:10:22;;;;;;;56.35;28.77;;;;;;;10.66;100.00;101174.78;5008657;28;20080;-77
2024/03/21 01:12:48;;;;;;;61.70;31.33;;;;;;;10.74;100.00;101174.84;5014711;28;20044;-77
2024/03/21 01:15:17;;;;;;;51.30;26.70;;;;;;;10.61;100.00;101166.41;5031403;28;20068;-77
2024/03/21 01:17:43;;;;;;;53.53;27.45;;;;;;;10.64;100.00;101163.41;5031210;28;20056;-78
2024/03/21 01:20:09;;;;;;;51.40;27.38;;;;;;;10.72;100.00;101161.66;5007887;28;20489;-77
2024/03/21 01:22:34;;;;;;;47.63;24.58;;;;;;;10.64;100.00;101161.59;5032603;28;20437;-78
2024/03/21 01:25:00;;;;;;;49.00;25.70;;;;;;;10.64;100.00;101153.56;5019249;28;20109;-77
2024/03/21 01:27:25;;;;;;;47.07;23.63;;;;;;;10.60;100.00;101148.69;4999393;28;20065;-77
2024/03/21 01:29:51;;;;;;;38.47;21.47;;;;;;;10.53;100.00;101157.28;5007166;28;20132;-78
2024/03/21 01:32:17;;;;;;;44.53;23.50;;;;;;;10.67;100.00;101147.91;5027226;28;20294;-77
2024/03/21 01:34:42;;;;;;;44.38;24.00;;;;;;;10.59;100.00;101137.19;5013576;28;20071;-77
2024/03/21 01:37:08;;;;;;;39.77;22.50;;;;;;;10.61;100.00;101140.53;5025865;28;20041;-77
2024/03/21 01:39:33;;;;;;;39.80;20.97;;;;;;;10.61;100.00;101134.38;5019068;28;20091;-77
2024/03/21 01:41:59;;;;;;;41.60;22.00;;;;;;;10.53;100.00;101127.94;5027585;28;20755;-77
2024/03/21 01:44:24;;;;;;;42.40;21.67;;;;;;;10.56;100.00;101130.31;5026098;28;20033;-77
2024/03/21 01:46:50;;;;;;;40.47;20.90;;;;;;;10.67;100.00;101125.72;5018488;28;20300;-77
2024/03/21 01:49:15;;;;;;;43.72;23.20;;;;;;;10.52;100.00;101109.41;5021197;28;20451;-78
2024/03/21 01:51:47;;;;;;;39.93;21.13;;;;;;;10.67;100.00;101123.88;5030186;28;20403;-77
2024/03/21 01:54:17;;;;;;;46.25;23.40;;;;;;;10.59;100.00;101121.16;5022085;28;20041;-78
2024/03/21 01:56:43;;;;;;;38.33;21.48;;;;;;;10.68;100.00;101127.41;5001114;28;20049;-77
2024/03/21 01:59:09;;;;;;;39.67;20.58;;;;;;;10.56;100.00;101116.97;5011347;28;20033;-78
2024/03/21 02:01:36;;;;;;;38.67;20.48;;;;;;;10.61;100.00;101113.00;5000295;28;20042;-78
2024/03/21 02:04:04;;;;;;;42.15;20.58;;;;;;;10.58;100.00;101108.78;5023234;28;20080;-78
2024/03/21 02:06:32;;;;;;;40.40;21.83;;;;;;;10.49;100.00;101107.06;5030470;28;20113;-77
2024/03/21 02:09:00;;;;;;;41.80;21.95;;;;;;;10.60;100.00;101108.63;5030263;28;20029;-78
2024/03/21 02:11:25;;;;;;;40.50;20.25;;;;;;;10.53;100.00;101105.75;5030997;28;20021;-77
2024/03/21 02:13:52;;;;;;;35.38;19.30;;;;;;;10.59;100.00;101099.78;5024380;28;20594;-77
2024/03/21 02:16:19;;;;;;;39.60;21.08;;;;;;;10.56;100.00;101106.28;5014298;28;20051;-77
2024/03/21 02:18:44;;;;;;;45.85;21.75;;;;;;;10.61;100.00;101111.16;5001753;28;20048;-77
2024/03/21 02:23:54;;;;;;;39.35;19.48;;;;;;;10.67;100.00;101109.69;5022909;28;20069;-78
2024/03/21 02:26:20;;;;;;;45.05;21.83;;;;;;;10.64;100.00;101102.00;5029373;28;20476;-78
2024/03/21 02:28:47;;;;;;;38.40;20.58;;;;;;;10.65;100.00;101090.31;5002653;28;20040;-77
2024/03/21 02:31:13;;;;;;;41.15;20.58;;;;;;;10.51;100.00;101078.34;5028636;28;20037;-77
2024/03/21 02:33:38;;;;;;;30.13;18.05;;;;;;;10.51;100.00;101081.03;5029957;28;20499;-77
2024/03/21 02:36:04;;;;;;;34.33;18.08;;;;;;;10.45;100.00;101079.81;5028898;28;20495;-77
2024/03/21 02:38:29;;;;;;;35.25;18.25;;;;;;;10.43;100.00;101084.47;5004651;28;20120;-78
2024/03/21 02:40:55;;;;;;;31.83;17.27;;;;;;;10.47;100.00;101085.00;5003349;28;20038;-77
2024/03/21 02:43:20;;;;;;;33.80;18.50;;;;;;;10.49;100.00;101091.88;5027401;28;20032;-78
2024/03/21 02:45:46;;;;;;;34.57;18.50;;;;;;;10.48;100.00;101084.00;4999254;28;20037;-77
2024/03/21 02:48:11;;;;;;;37.97;19.38;;;;;;;10.54;100.00;101092.25;5042089;28;20730;-77
2024/03/21 02:50:37;;;;;;;33.28;18.52;;;;;;;10.54;100.00;101076.22;5022750;28;20026;-77
2024/03/21 02:53:04;;;;;;;35.13;18.47;;;;;;;10.54;100.00;101086.91;5010781;28;20041;-77
2024/03/21 02:55:30;;;;;;;35.97;18.73;;;;;;;10.55;100.00;101088.56;5024619;28;20029;-77
2024/03/21 02:57:55;;;;;;;40.55;19.65;;;;;;;10.46;100.00;101081.47;5025224;28;20032;-78
2024/03/21 03:00:20;;;;;;;39.05;17.30;;;;;;;10.39;100.00;101082.25;5024966;28;20063;-77
2024/03/21 03:02:46;;;;;;;36.33;18.30;;;;;;;10.50;100.00;101090.88;5025811;28;20044;-77
2024/03/21 03:05:13;;;;;;;36.28;18.70;;;;;;;10.48;100.00;101090.19;5026538;28;20044;-77
2024/03/21 03:07:38;;;;;;;35.75;16.25;;;;;;;10.46;100.00;101086.81;5026521;28;20029;-76
2024/03/21 03:10:04;;;;;;;38.13;18.30;;;;;;;10.48;100.00;101090.19;5024105;28;20492;-76
2024/03/21 03:12:30;;;;;;;35.63;17.85;;;;;;;10.47;100.00;101082.34;5017857;28;20535;-76
2024/03/21 03:14:55;;;;;;;;;;;;;;;10.49;100.00;101088.38;5026496;28;20040;-77
2024/03/21 03:17:21;;;;;;;31.98;16.77;;;;;;;10.52;100.00;101078.22;5024903;28;19909;-77
2024/03/21 03:19:46;;;;;;;37.73;18.60;;;;;;;10.52;100.00;101085.38;5024925;28;20033;-77
2024/03/21 03:22:11;;;;;;;39.93;20.53;;;;;;;10.51;100.00;101089.91;5021961;28;20101;-77
2024/03/21 03:24:37;;;;;;;41.57;19.23;;;;;;;10.44;100.00;101078.16;5002048;28;20037;-76
2024/03/21 03:27:02;;;;;;;40.73;18.83;;;;;;;10.38;100.00;101086.75;4992768;28;20034;-77
2024/03/21 03:29:28;;;;;;;47.22;20.00;;;;;;;10.54;100.00;101083.41;4991346;28;20295;-76
2024/03/21 03:32:01;;;;;;;45.00;20.03;;;;;;;10.53;100.00;101090.56;5018171;28;20087;-77
2024/03/21 03:37:11;;;;;;;51.00;22.88;;;;;;;10.59;100.00;101073.09;5024017;28;20435;-76
2024/03/21 03:39:37;;;;;;;53.92;21.73;;;;;;;10.61;100.00;101078.28;5014996;28;20042;-77
2024/03/21 03:42:03;;;;;;;48.27;23.67;;;;;;;10.51;100.00;101086.34;5009057;28;20049;-77
2024/03/21 03:44:28;;;;;;;53.90;24.38;;;;;;;10.53;100.00;101076.38;5017570;28;20330;-77
2024/03/21 03:46:54;;;;;;;53.60;23.30;;;;;;;10.47;100.00;101079.69;5025518;28;20030;-77
2024/03/21 03:49:19;;;;;;;58.88;24.52;;;;;;;10.50;100.00;101090.03;5010235;28;20092;-76
2024/03/21 03:51:44;;;;;;;67.20;26.70;;;;;;;10.37;100.00;101074.38;5024673;28;20089;-77
2024/03/21 03:54:10;;;;;;;56.53;25.77;;;;;;;10.50;100.00;101090.88;5020103;28;20351;-77
2024/03/21 03:56:35;;;;;;;69.10;27.30;;;;;;;10.59;100.00;101093.63;4998536;28;20034;-75
2024/03/21 03:59:01;;;;;;;74.27;29.97;;;;;;;10.59;100.00;101082.94;5007858;28;20558;-76
2024/03/21 04:01:26;;;;;;;63.70;28.70;;;;;;;10.48;100.00;101086.69;4994849;28;20876;-77
2024/03/21 04:03:51;;;;;;;64.87;29.10;;;;;;;10.48;100.00;101081.34;5024073;28;20773;-77
2024/03/21 04:06:17;;;;;;;74.27;31.77;;;;;;;10.59;100.00;101097.13;5028161;28;20042;-76
2024/03/21 04:08:42;;;;;;;69.63;29.30;;;;;;;10.58;100.00;101090.09;5030564;28;20037;-77
2024/03/21 04:11:13;;;;;;;68.73;28.87;;;;;;;10.51;100.00;101089.91;5026725;28;20040;-77
2024/03/21 04:13:39;;;;;;;62.95;27.88;;;;;;;10.52;100.00;101090.72;5000793;28;20097;-77
2024/03/21 04:16:04;;;;;;;66.63;29.23;;;;;;;10.53;100.00;101082.53;5006307;28;20022;-77
2024/03/21 04:18:29;;;;;;;73.03;30.47;;;;;;;10.59;100.00;101093.63;4998566;28;20029;-77
2024/03/21 04:20:56;;;;;;;72.90;29.63;;;;;;;10.55;100.00;101085.06;5012362;28;20108;-77
2024/03/21 04:23:22;;;;;;;58.40;26.13;;;;;;;10.55;100.00;101085.06;4997668;28;20033;-76
2024/03/21 04:25:48;;;;;;;62.70;28.17;;;;;;;10.55;100.00;101082.41;4999513;28;20058;-77
2024/03/21 04:28:13;;;;;;;67.90;27.33;;;;;;;10.57;100.00;101083.09;5027922;28;20069;-77
2024/03/21 04:30:39;;;;;;;60.70;26.53;;;;;;;10.45;100.00;101079.81;5028829;28;20483;-76
2024/03/21 04:33:05;;;;;;;53.83;25.85;;;;;;;10.60;100.00;101090.78;5028049;28;20840;-77
2024/03/21 04:35:30;;;;;;;56.97;25.65;;;;;;;10.62;100.00;101085.28;5029389;28;20108;-77
2024/03/21 04:37:56;;;;;;;59.28;25.42;;;;;;;10.56;100.00;101082.25;5012069;28;20036;-77
2024/03/21 04:40:22;;;;;;;52.65;25.42;;;;;;;10.59;100.00;101078.44;5029654;28;20183;-77
2024/03/21 04:42:47;;;;;;;55.75;26.15;;;;;;;10.64;100.00;101085.97;5011217;28;20538;-77
2024/03/21 04:45:13;;;;;;;51.25;24.40;;;;;;;10.52;100.00;101072.88;5021287;28;20037;-77
2024/03/21 04:47:39;;;;;;;54.47;23.83;;;;;;;10.52;100.00;101080.88;5030022;28;20025;-77
2024/03/21 04:50:05;;;;;;;57.73;25.57;;;;;;;10.48;100.00;101076.84;5011495;28;20546;-77
2024/03/21 04:52:30;;;;;;;56.03;25.77;;;;;;;10.49;100.00;101078.53;4997355;28;20374;-77
2024/03/21 04:54:55;;;;;;;62.20;26.57;;;;;;;10.54;100.00;101092.25;5012000;28;20035;-77
2024/03/21 04:57:21;;;;;;;56.00;26.50;;;;;;;10.55;100.00;101087.75;5029091;28;20100;-77
2024/03/21 04:59:46;;;;;;;56.13;23.90;;;;;;;10.49;100.00;101080.38;5011601;28;20077;-77
2024/03/21 05:02:12;;;;;;;59.97;27.07;;;;;;;10.57;100.00;101085.75;5027170;28;20025;-77
2024/03/21 05:04:37;;;;;;;58.60;27.33;;;;;;;10.54;100.00;101080.75;4993953;28;20106;-77
2024/03/21 05:07:03;;;;;;;71.53;28.73;;;;;;;10.56;100.00;101095.59;5027020;28;20029;-76
2024/03/21 05:09:29;;;;;;;70.35;28.02;;;;;;;10.51;100.00;101091.69;4996694;28;20037;-77
2024/03/21 05:11:54;;;;;;;62.27;29.20;;;;;;;10.49;100.00;101104.38;5028649;28;20039;-77
2024/03/21 05:14:20;;;;;;;61.17;25.35;;;;;;;10.34;100.00;101091.56;5022911;28;20334;-77
2024/03/21 05:16:45;;;;;;;54.13;24.27;;;;;;;10.31;100.00;101104.38;5012840;28;20494;-77
2024/03/21 05:19:13;;;;;;;46.07;22.20;;;;;;;10.20;100.00;101093.88;5021855;28;20045;-76
2024/03/21 05:21:39;;;;;;;38.83;17.83;;;;;;;10.30;100.00;101110.69;5010283;28;20358;-76
2024/03/21 05:24:05;;;;;;;31.35;15.50;;;;;;;10.28;100.00;101100.19;5025150;28;20033;-76
2024/03/21 05:26:31;;;;;;;22.73;11.93;;;;;;;10.30;100.00;101108.03;4995415;28;20041;-77
2024/03/21 05:28:56;;;;;;;22.73;11.40;;;;;;;10.26;100.00;101098.63;5026403;28;20022;-76
2024/03/21 05:31:26;;;;;;;22.40;11.25;;;;;;;10.17;100.00;101107.53;5026368;28;20527;-77
2024/03/21 05:33:53;;;;;;;20.92;9.70;;;;;;;10.14;100.00;101114.84;5025969;28;20839;-76
2024/03/21 05:36:19;;;;;;;20.92;9.52;;;;;;;10.09;100.00;101114.47;5025471;28;20068;-76
2024/03/21 05:38:45;;;;;;;14.00;7.87;;;;;;;10.02;100.00;101123.22;5027855;28;20057;-77
2024/03/21 05:41:11;;;;;;;17.60;8.95;;;;;;;10.02;100.00;101128.53;5019570;28;20339;-77
2024/03/21 05:43:37;;;;;;;14.98;7.70;;;;;;;10.04;100.00;101124.72;5002590;28;20163;-76
2024/03/21 05:46:03;;;;;;;13.55;8.00;;;;;;;9.93;100.00;101117.78;5009080;28;20068;-77
2024/03/21 05:48:29;;;;;;;21.88;9.48;;;;;;;10.00;100.00;101104.69;5025717;28;20044;-77
2024/03/21 05:50:54;;;;;;;17.80;9.18;;;;;;;9.96;100.00;101105.97;5027161;28;20653;-77
2024/03/21 05:53:20;;;;;;;18.42;10.68;;;;;;;9.90;100.00;101104.75;5026988;28;20674;-77
2024/03/21 05:56:04;;;;;;;19.92;10.05;;;;;;;10.01;100.00;101116.22;5026289;28;20037;-77
2024/03/21 05:58:33;;;;;;;25.88;14.43;;;;;;;9.90;100.00;101114.56;5008854;28;20034;-77
2024/03/21 06:01:07;;;;;;;28.92;15.07;;;;;;;9.97;100.00;101120.16;5010642;28;20026;-77
2024/03/21 06:03:36;;;;;;;29.23;15.73;;;;;;;9.97;100.00;101131.66;5015864;28;20076;-77
2024/03/21 06:06:02;;;;;;;30.35;16.92;;;;;;;9.92;100.00;101129.44;5018067;28;20402;-77
2024/03/21 06:08:28;;;;;;;31.45;16.95;;;;;;;9.79;100.00;101120.13;5010434;28;20025;-77
2024/03/21 06:10:53;;;;;;;31.98;16.77;;;;;;;9.72;100.00;101115.38;5027068;28;20072;-77
2024/03/21 06:13:22;;;;;;;33.20;17.50;;;;;;;9.80;100.00;101127.97;5020563;28;20088;-77
2024/03/21 06:15:47;;;;;;;38.65;18.05;;;;;;;9.59;100.00;101122.03;5010040;28;20033;-76
2024/03/21 06:18:14;;;;;;;41.45;20.00;;;;;;;9.74;100.00;101120.56;5018884;28;20388;-77
2024/03/21 06:20:40;;;;;;;34.03;19.00;;;;;;;9.80;100.00;101124.47;4996804;28;20465;-77
2024/03/21 06:23:06;;;;;;;;;;;;;;;9.91;100.00;101138.44;5011243;28;20104;-77
2024/03/21 06:25:31;;;;;;;33.50;18.50;;;;;;;9.81;100.00;101126.13;5016926;28;20130;-77
2024/03/21 06:27:56;;;;;;;39.13;20.63;;;;;;;9.80;100.00;101135.97;5006366;28;20045;-77
2024/03/21 06:30:22;;;;;;;41.60;21.53;;;;;;;9.77;100.00;101130.09;5025486;28;20285;-77
2024/03/21 06:32:47;;;;;;;40.30;21.63;;;;;;;9.79;100.00;101136.13;5025811;28;20396;-77
2024/03/21 06:35:14;;;;;;;33.30;19.20;;;;;;;9.82;100.00;101131.31;5001150;28;20276;-77
2024/03/21 06:37:39;;;;;;;38.15;21.90;;;;;;;9.91;100.00;101137.59;5023170;28;20037;-77
2024/03/21 06:40:06;;;;;;;36.72;21.48;;;;;;;9.94;100.00;101131.97;5023286;28;20029;-78
2024/03/21 06:42:33;;;;;;;35.78;19.27;;;;;;;9.99;100.00;101129.69;4997863;28;20489;-78
2024/03/21 06:45:03;;;;;;;35.55;19.70;;;;;;;10.18;100.00;101133.22;5006798;28;20120;-78
2024/03/21 06:47:28;;;;;;;31.25;18.35;;;;;;;10.36;100.00;101136.78;5009643;28;20037;-78
2024/03/21 06:49:56;;;;;;;33.23;17.97;;;;;;;10.48;100.00;101140.91;5025760;28;20029;-77
2024/03/21 06:52:21;;;;;;;31.63;17.48;;;;;;;10.51;100.00;101123.75;5020651;28;20048;-78
2024/03/21 06:54:46;;;;;;;29.90;17.33;;;;;;;10.95;100.00;101143.31;5026883;28;20037;-78
2024/03/21 06:57:12;;;;;;;28.80;18.17;;;;;;;11.84;100.00;101160.06;5007692;28;20287;-77
2024/03/21 06:59:38;;;;;;;28.07;18.20;;;;;;;11.75;100.00;101103.03;5027649;28;20030;-78
2024/03/21 07:02:04;;;;;;;23.13;15.13;;;;;;;12.24;100.00;101118.38;5012473;28;20644;-78
2024/03/21 07:04:30;;;;;;;27.05;15.85;;;;;;;12.23;100.00;101101.50;5027450;28;21080;-77
2024/03/21 07:06:55;;;;;;;24.47;16.67;;;;;;;12.60;100.00;101078.78;5017597;28;20041;-79
2024/03/21 07:09:20;;;;;;;25.50;14.57;;;;;;;12.77;100.00;101066.19;5028813;28;20029;-77
2024/03/21 07:11:46;;;;;;;22.20;14.90;;;;;;;12.44;100.00;101043.97;5027438;28;20036;-76
2024/03/21 07:14:11;;;;;;;21.90;14.63;;;;;;;12.24;100.00;101044.31;5020685;28;20044;-77
2024/03/21 07:16:36;;;;;;;21.87;13.77;;;;;;;12.69;100.00;101063.53;5030519;28;20044;-77
2024/03/21 07:19:02;;;;;;;21.27;13.63;;;;;;;13.17;100.00;101044.84;5029916;28;20037;-77
2024/03/21 07:21:28;;;;;;;21.13;13.80;;;;;;;13.07;100.00;100973.50;5021818;28;20287;-77
2024/03/21 07:23:53;;;;;;;18.70;12.63;;;;;;;13.01;100.00;100971.50;5014453;28;20076;-78
2024/03/21 07:26:19;;;;;;;20.33;12.90;;;;;;;12.80;100.00;100952.50;5031474;28;20037;-78
2024/03/21 07:28:44;;;;;;;21.80;13.63;;;;;;;12.18;100.00;100913.78;5013100;28;20097;-79
2024/03/21 07:31:09;;;;;;;22.90;14.70;;;;;;;11.85;100.00;100907.59;5021946;28;20042;-78
2024/03/21 07:33:35;;;;;;;21.80;14.13;;;;;;;11.39;100.00;100932.09;5030184;28;20044;-78
2024/03/21 07:36:02;;;;;;;22.47;14.07;;;;;;;11.30;100.00;100973.16;5024515;28;20033;-78
2024/03/21 07:38:27;;;;;;;19.73;13.73;;;;;;;11.49;100.00;101006.81;5004731;28;20029;-77
2024/03/21 07:41:00;;;;;;;23.90;13.77;;;;;;;11.61;100.00;101010.00;5027425;28;20396;-78
2024/03/21 07:43:27;;;;;;;22.45;14.00;;;;;;;11.34;100.00;100971.84;5032249;28;20147;-79
2024/03/21 07:45:53;;;;;;;24.60;14.07;;;;;;;11.67;100.00;101009.38;5033094;28;20029;-77
2024/03/21 07:48:18;;;;;;;23.65;14.20;;;;;;;11.59;100.00;101004.00;5027471;28;20060;-78
2024/03/21 07:50:44;;;;;;;25.67;14.80;;;;;;;11.62;100.00;101001.00;5032376;28;20075;-78
2024/03/21 07:53:10;;;;;;;27.23;15.27;;;;;;;11.53;100.00;100996.63;5016530;28;20033;-78
2024/03/21 07:55:35;;;;;;;22.27;13.53;;;;;;;11.54;100.00;101000.97;5034412;28;20469;-78
2024/03/21 07:58:01;;;;;;;24.70;14.27;;;;;;;11.34;100.00;100993.22;5033297;28;20033;-76
2024/03/21 08:00:30;;;;;;;24.17;14.88;;;;;;;11.05;100.00;100980.25;5016298;28;20045;-75
2024/03/21 08:02:56;;;;;;;25.92;14.27;;;;;;;11.05;100.00;101020.34;5016543;28;20033;-79
2024/03/21 08:05:22;;;;;;;27.50;16.08;;;;;;;11.00;100.00;101025.28;5025070;28;20038;-76
2024/03/21 08:07:47;;;;;;;25.63;14.80;;;;;;;10.86;100.00;101034.72;5020668;28;20042;-77
2024/03/21 08:10:13;;;;;;;25.75;15.82;;;;;;;10.68;100.00;101053.47;5030799;28;20036;-78
2024/03/21 08:12:38;;;;;;;30.75;17.52;;;;;;;10.52;100.00;101062.19;5017395;28;20123;-78
2024/03/21 08:15:04;;;;;;;31.13;16.87;;;;;;;10.52;100.00;101099.56;5032773;28;20030;-78
2024/03/21 08:17:30;;;;;;;33.22;17.23;;;;;;;10.37;100.00;101132.28;4999391;28;20038;-78
2024/03/21 08:19:56;;;;;;;31.65;18.65;;;;;;;10.57;100.00;101176.53;5032984;28;20087;-77
2024/03/21 08:22:21;;;;;;;;;;;;;;;10.64;100.00;101177.59;5016667;28;20037;-76
2024/03/21 08:24:47;;;;;;;25.20;11.70;;;;;;;10.25;100.00;101152.97;5035931;28;19921;-75
2024/03/21 08:27:14;;;;;;;20.20;10.73;;;;;;;10.12;100.00;101206.72;5013309;28;20030;-78
2024/03/21 08:29:40;;;;;;;17.52;10.00;;;;;;;10.05;100.00;101229.63;5007376;28;20037;-78
2024/03/21 08:32:09;;;;;;;15.90;9.07;;;;;;;10.01;100.00;101250.41;5032315;28;20152;-79
2024/03/21 08:34:34;;;;;;;15.60;8.65;;;;;;;10.11;100.00;101293.06;5031885;28;20033;-78
2024/03/21 08:37:00;;;;;;;15.57;7.67;;;;;;;9.95;100.00;101267.03;5032973;28;20021;-77
2024/03/21 08:39:25;;;;;;;17.97;8.10;;;;;;;10.30;100.00;101306.38;5024114;28;20033;-78
2024/03/21 08:41:50;;;;;;;12.90;8.13;;;;;;;10.43;100.00;101305.19;5025951;28;20288;-78
2024/03/21 08:44:16;;;;;;;14.80;7.07;;;;;;;9.98;100.00;101284.56;5032035;28;20033;-78
2024/03/21 08:46:41;;;;;;;13.87;7.93;;;;;;;10.11;100.00;101320.59;5007327;28;20295;-77
2024/03/21 08:49:06;;;;;;;16.37;8.47;;;;;;;10.15;100.00;101321.97;5027575;28;20282;-76
2024/03/21 08:51:32;;;;;;;13.03;6.87;;;;;;;10.17;100.00;101302.31;5006633;28;20064;-75
2024/03/21 08:53:57;;;;;;;16.60;7.73;;;;;;;10.10;100.00;101310.06;5015601;28;20140;-77
2024/03/21 08:56:23;;;;;;;18.93;9.47;;;;;;;10.26;100.00;101330.81;5032742;28;20124;-78
2024/03/21 08:58:48;;;;;;;16.03;8.00;;;;;;;10.39;100.00;101330.50;5030059;28;20038;-77
2024/03/21 09:01:13;;;;;;;13.77;7.30;;;;;;;10.10;100.00;101320.75;5047836;28;20040;-78
2024/03/21 09:03:39;;;;;;;13.37;7.23;;;;;;;10.23;100.00;101323.94;5007561;28;20060;-79
2024/03/21 09:06:04;;;;;;;13.10;6.90;;;;;;;10.26;100.00;101330.81;5048600;28;20284;-77
2024/03/21 09:08:30;;;;;;;11.68;7.15;;;;;;;10.04;100.00;101323.97;5030331;28;20087;-76
2024/03/21 09:11:05;;;;;;;13.43;6.80;;;;;;;10.32;100.00;101355.13;5019288;28;20072;-79
2024/03/21 09:13:31;;;;;;;11.07;6.15;;;;;;;10.22;100.00;101337.41;5040038;28;20065;-77
2024/03/21 09:15:57;;;;;;;8.88;5.78;;;;;;;9.88;100.00;101320.09;5025048;28;20143;-76
2024/03/21 09:18:22;;;;;;;;;;;;;;;9.87;100.00;101331.72;5021834;28;20045;-77
2024/03/21 09:20:48;;;;;;;12.10;7.43;;;;;;;9.68;100.00;101329.94;5028488;28;20287;-77
2024/03/21 09:23:14;;;;;;;22.27;11.52;;;;;;;9.33;100.00;101349.19;5023360;28;20514;-79
2024/03/21 09:25:39;;;;;;;28.10;14.23;;;;;;;9.28;100.00;101346.94;5015010;28;20036;-78
2024/03/21 09:28:05;;;;;;;34.20;16.23;;;;;;;9.07;100.00;101354.22;5033176;28;20041;-78
2024/03/21 09:30:31;;;;;;;38.67;16.95;;;;;;;8.73;100.00;101327.91;5046953;28;20973;-78
2024/03/21 09:32:57;;;;;;;30.15;13.77;;;;;;;8.52;100.00;101356.44;5032610;28;20033;-76
2024/03/21 09:35:22;;;;;;;27.90;14.13;;;;;;;8.44;100.00;101365.94;5007589;28;20041;-77
2024/03/21 09:37:48;;;;;;;26.05;13.63;;;;;;;8.16;100.00;101346.16;5032234;28;20065;-77
2024/03/21 09:40:17;;;;;;;26.85;14.43;;;;;;;8.06;100.00;101371.88;5031637;28;20555;-77
2024/03/21 09:42:43;;;;;;;27.00;13.82;;;;;;;8.04;100.00;101385.28;5029723;28;20431;-76
2024/03/21 09:45:13;;;;;;;29.10;13.50;;;;;;;8.17;100.00;101400.19;5029697;28;20102;-77
2024/03/21 09:47:40;;;;;;;26.60;13.30;;;;;;;8.18;100.00;101409.88;5015576;28;20042;-77
2024/03/21 09:50:10;;;;;;;27.70;12.90;;;;;;;8.30;100.00;101405.31;5029091;28;20030;-78
2024/03/21 09:52:37;;;;;;;21.13;11.40;;;;;;;8.19;100.00;101387.59;5030866;28;20029;-78
2024/03/21 09:55:04;;;;;;;;;;;;;;;7.80;100.00;101372.25;5030760;28;20041;-77
2024/03/21 09:57:30;;;;;;;25.30;11.55;;;;;;;8.04;100.00;101411.88;5047226;28;19920;-78
2024/03/21 09:59:55;;;;;;;23.48;11.80;;;;;;;8.08;100.00;101414.28;5000455;28;20124;-77
2024/03/21 10:02:21;;;;;;;21.27;11.93;;;;;;;7.93;100.00;101414.59;5028919;28;20044;-76
2024/03/21 10:04:46;;;;;;;23.23;13.32;;;;;;;7.80;100.00;101413.97;5014431;28;20828;-77
2024/03/21 10:07:20;;;;;;;27.42;13.63;;;;;;;7.85;100.00;101430.34;5030800;28;20041;-76
2024/03/21 10:09:57;;;;;;;22.48;11.93;;;;;;;7.85;100.00;101432.19;5030372;28;20045;-78
2024/03/21 10:12:24;;;;;;;23.73;11.98;;;;;;;7.76;100.00;101429.31;5030115;28;20038;-77
2024/03/21 10:14:55;;;;;;;25.20;12.95;;;;;;;7.86;100.00;101433.84;5032543;28;20022;-77
2024/03/21 10:17:21;;;;;;;28.25;13.57;;;;;;;7.59;100.00;101425.38;5030097;28;20029;-78
2024/03/21 10:19:46;;;;;;;27.75;14.25;;;;;;;7.67;100.00;101445.19;5030308;28;20029;-75
2024/03/21 10:22:21;;;;;;;30.48;13.88;;;;;;;7.76;100.00;101455.88;5024223;28;20090;-77
2024/03/21 10:24:51;;;;;;;31.13;14.25;;;;;;;7.77;100.00;101459.38;5030984;28;20114;-75
2024/03/21 10:27:17;;;;;;;31.80;14.20;;;;;;;7.72;100.00;101450.94;5031681;28;20477;-75
2024/03/21 10:29:44;;;;;;;33.42;14.60;;;;;;;7.60;100.00;101461.59;5012049;28;20041;-78
2024/03/21 10:32:17;;;;;;;35.72;15.82;;;;;;;7.45;100.00;101462.88;5029756;28;20105;-75
2024/03/21 10:34:48;;;;;;;33.30;15.73;;;;;;;7.52;100.00;101479.16;5023269;28;20104;-77
2024/03/21 10:37:14;;;;;;;34.40;15.48;;;;;;;7.60;100.00;101488.19;5022936;28;20030;-76
2024/03/21 10:39:39;;;;;;;32.75;15.65;;;;;;;7.75;100.00;101501.19;5012928;28;20087;-77
2024/03/21 10:42:07;;;;;;;34.37;15.97;;;;;;;7.72;100.00;101485.50;5020744;28;20038;-79
2024/03/21 10:44:34;;;;;;;32.00;15.20;;;;;;;7.65;100.00;101485.16;5028902;28;20419;-78
2024/03/21 10:47:00;;;;;;;36.40;15.32;;;;;;;7.58;100.00;101486.63;5012872;28;20049;-78
2024/03/21 10:49:26;;;;;;;44.85;17.90;;;;;;;7.28;100.00;101482.84;5013148;28;20029;-78
2024/03/21 10:51:52;;;;;;;27.27;13.07;;;;;;;7.42;100.00;101499.47;5017873;28;20037;-75
2024/03/21 10:54:19;;;;;;;35.72;17.20;;;;;;;7.56;100.00;101507.16;5013062;28;20052;-76
2024/03/21 10:56:46;;;;;;;33.75;15.57;;;;;;;7.82;100.00;101523.66;5029278;28;20034;-77
2024/03/21 10:59:15;;;;;;;33.17;14.02;;;;;;;7.59;100.00;101494.47;5029450;28;20042;-75
2024/03/21 11:01:44;;;;;;;24.27;13.20;;;;;;;7.73;100.00;101495.19;5029761;28;20033;-78
2024/03/21 11:04:11;;;;;;;23.70;12.02;;;;;;;7.70;100.00;101482.13;5032395;28;20037;-78
2024/03/21 11:06:41;;;;;;;24.17;12.13;;;;;;;7.97;100.00;101487.81;5031713;28;20484;-77
2024/03/21 11:09:08;;;;;;;23.70;11.48;;;;;;;8.08;100.00;101486.06;5030444;28;20120;-76